Weather

BOSCOMBE DOWN (EGDM)

METAR

EGDM 211350Z 30005KT 9999 OVC014 12/09 Q1033 GRN BECMG BKN016 WHT

TAF

TAF EGDM 130455Z 1306/1324 17015KT 9999 -RA BKN015 TEMPO 1306/1312 17018G28KT 6000 -RADZ BKN010 PROB30 TEMPO 1306/1315 3000 RADZ BKN006 BECMG 1312/1315 BKN008

BRISTOL AIRPORT (EGGD)

METAR

EGGD 211350Z AUTO 27008KT 9999 OVC008 11/08 Q1033

TAF

TAF EGGD 211100Z 2112/2212 27006KT 9999 BKN004 BECMG 2112/2115 FEW005 SCT010 PROB30 2112/2115 8000 TEMPO 2115/2210 8000 BKN004 PROB30 TEMPO 2121/2209 2000 BR BKN001 BECMG 2200/2203 20010KT

BRIZE NORTON (EGVN)

METAR

EGVN 211350Z 28003KT 9999 OVC013 12/09 Q1033 GRN BECMG BKN015 WHT

TAF

TAF EGVN 211350Z 2115/2215 27005KT 9999 BKN015 PROB30 TEMPO 2115/2117 BKN014 BECMG 2121/2124 BKN012 PROB30 TEMPO 2200/2208 6000 BR BKN005 BECMG 2209/2212 BKN015

OXFORD (EGTK)

METAR

EGTK 211350Z 22005KT 190V250 9999 OVC012 12/09 Q1033

Pressure charts

Click to see pressure charts
(redidrection to MetOffice website)